createdAt,value
2022-12-01T00:03:05.369Z,86.15
2022-12-01T00:08:08.532Z,86.37
2022-12-01T00:13:11.326Z,86.40
2022-12-01T00:18:14.040Z,86.60
2022-12-01T00:23:16.783Z,86.73
2022-12-01T00:28:19.895Z,87.16
2022-12-01T00:33:22.710Z,87.45
2022-12-01T00:38:25.804Z,87.35
2022-12-01T00:43:28.604Z,87.23
2022-12-01T00:48:31.509Z,87.13
2022-12-01T00:53:34.412Z,87.32
2022-12-01T00:58:37.157Z,87.38
2022-12-01T01:03:40.026Z,87.42
2022-12-01T01:08:42.957Z,87.50
2022-12-01T01:13:45.683Z,87.42
2022-12-01T01:18:48.814Z,87.46
2022-12-01T01:23:53.888Z,87.40
2022-12-01T01:28:59.270Z,87.55
2022-12-01T01:34:03.529Z,87.66
2022-12-01T01:39:06.394Z,87.43
2022-12-01T01:44:46.928Z,87.40
2022-12-01T01:49:50.105Z,87.35
2022-12-01T01:54:55.787Z,86.99
2022-12-01T02:00:07.505Z,86.56
2022-12-01T02:05:16.797Z,86.48
2022-12-01T02:10:23.924Z,86.11
2022-12-01T02:15:39.327Z,85.83
2022-12-01T02:21:19.448Z,85.33
2022-12-01T02:26:52.637Z,85.46
2022-12-01T02:32:23.654Z,85.49
2022-12-01T02:37:47.669Z,85.25
2022-12-01T02:43:28.367Z,85.47
2022-12-01T02:48:36.797Z,85.81
2022-12-01T02:53:39.699Z,85.73
2022-12-01T02:58:44.130Z,85.49
2022-12-01T03:04:18.372Z,85.50
2022-12-01T03:09:47.277Z,85.85
2022-12-01T03:15:11.284Z,85.84
2022-12-01T03:20:28.020Z,85.92
2022-12-01T03:25:32.470Z,85.57
2022-12-01T03:30:37.922Z,85.59
2022-12-01T03:35:54.446Z,85.95
2022-12-01T03:41:02.094Z,86.06
2022-12-01T03:46:15.967Z,86.36
2022-12-01T03:51:33.368Z,86.58
2022-12-01T03:56:44.748Z,86.89
2022-12-01T04:01:48.406Z,87.40
2022-12-01T04:06:51.438Z,88.12
2022-12-01T04:12:12.867Z,88.76
2022-12-01T04:17:15.604Z,89.08
2022-12-01T04:22:19.258Z,89.49
2022-12-01T04:27:22.263Z,89.93
2022-12-01T04:32:25.068Z,90.25
2022-12-01T04:37:27.770Z,90.28
2022-12-01T04:42:30.515Z,90.71
2022-12-01T04:47:33.371Z,91.53
2022-12-01T04:52:37.733Z,92.18
2022-12-01T04:57:41.652Z,92.64
2022-12-01T05:02:44.440Z,93.23
2022-12-01T05:07:47.297Z,93.08
2022-12-01T05:12:50.244Z,93.38
2022-12-01T05:17:52.990Z,93.88
2022-12-01T05:23:06.793Z,94.19
2022-12-01T05:28:10.426Z,94.41
2022-12-01T05:33:13.358Z,94.36
2022-12-01T05:38:16.548Z,94.73
2022-12-01T05:43:26.922Z,94.74
2022-12-01T05:48:32.029Z,94.79
2022-12-01T05:53:34.819Z,95.07
2022-12-01T05:58:38.091Z,95.20
2022-12-01T06:03:40.849Z,95.33
2022-12-01T06:08:43.705Z,95.40
2022-12-01T06:13:46.474Z,95.81
2022-12-01T06:18:49.317Z,95.63
2022-12-01T06:23:52.121Z,95.36
2022-12-01T06:28:56.563Z,95.35
2022-12-01T06:33:59.442Z,95.39
2022-12-01T06:39:06.057Z,95.36
2022-12-01T06:44:08.940Z,95.52
2022-12-01T06:49:12.680Z,95.43
2022-12-01T06:54:17.920Z,95.37
2022-12-01T06:59:20.674Z,95.41
2022-12-01T07:04:23.606Z,95.34
2022-12-01T07:09:26.429Z,95.10
2022-12-01T07:14:31.072Z,94.96
2022-12-01T07:19:34.591Z,95.07
2022-12-01T07:24:37.494Z,95.19
2022-12-01T07:29:40.397Z,95.23
2022-12-01T07:34:43.168Z,94.90
2022-12-01T07:39:45.923Z,94.71
2022-12-01T07:44:48.702Z,94.96
2022-12-01T07:49:51.661Z,94.99
2022-12-01T07:54:54.718Z,95.16
2022-12-01T07:59:57.927Z,95.13
2022-12-01T08:05:00.730Z,94.79
2022-12-01T08:10:04.047Z,94.76
2022-12-01T08:15:07.783Z,94.50
2022-12-01T08:20:11.680Z,94.77
2022-12-01T08:25:15.104Z,94.74
2022-12-01T08:30:18.013Z,94.56
2022-12-01T08:35:20.952Z,94.36
2022-12-01T08:40:23.760Z,94.21
2022-12-01T08:45:27.043Z,93.89
2022-12-01T08:50:29.946Z,93.71
2022-12-01T08:55:32.841Z,93.75
2022-12-01T09:00:35.621Z,92.90
2022-12-01T09:05:38.359Z,92.57
2022-12-01T09:10:42.413Z,92.83
2022-12-01T09:15:55.453Z,93.14
2022-12-01T09:20:59.034Z,93.01
2022-12-01T09:26:01.819Z,92.67
2022-12-01T09:31:10.144Z,92.43
2022-12-01T09:36:13.389Z,92.04
2022-12-01T09:41:21.658Z,92.04
2022-12-01T09:46:30.746Z,91.13
2022-12-01T09:51:36.403Z,90.90
2022-12-01T09:56:47.023Z,90.88
2022-12-01T10:01:56.138Z,90.51
2022-12-01T10:07:02.634Z,89.96
2022-12-01T10:12:17.883Z,89.78
2022-12-01T10:17:32.731Z,88.80
2022-12-01T10:22:41.531Z,88.57
2022-12-01T10:28:04.247Z,88.26
2022-12-01T10:33:23.515Z,87.63
2022-12-01T10:38:31.022Z,87.60
2022-12-01T10:43:47.974Z,87.52
2022-12-01T10:49:07.519Z,87.81
2022-12-01T10:54:11.859Z,87.85
2022-12-01T10:59:36.014Z,87.62
2022-12-01T11:04:52.436Z,87.45
2022-12-01T11:10:00.451Z,87.38
2022-12-01T11:15:06.125Z,87.16
2022-12-01T11:20:48.637Z,87.03
2022-12-01T11:26:05.495Z,87.19
2022-12-01T11:31:10.544Z,87.48
2022-12-01T11:36:26.470Z,87.19
2022-12-01T11:41:40.928Z,86.54
2022-12-01T11:46:50.306Z,86.81
2022-12-01T11:52:16.872Z,87.20
2022-12-01T11:57:33.746Z,87.36
2022-12-01T12:03:03.195Z,87.08
2022-12-01T12:08:15.129Z,87.23
2022-12-01T12:13:36.559Z,87.57
2022-12-01T12:18:42.252Z,87.57
2022-12-01T12:23:44.999Z,87.53
2022-12-01T12:29:13.833Z,87.48
2022-12-01T12:34:46.282Z,87.43
2022-12-01T12:40:07.279Z,87.60
2022-12-01T12:45:40.586Z,87.63
2022-12-01T12:51:10.905Z,87.75
2022-12-01T12:56:17.884Z,87.71
2022-12-01T13:01:34.430Z,87.86
2022-12-01T13:06:43.729Z,88.17
2022-12-01T13:11:48.969Z,88.31
2022-12-01T13:16:57.149Z,88.57
2022-12-01T13:22:01.842Z,88.60
2022-12-01T13:27:10.793Z,88.81
2022-12-01T13:32:32.395Z,89.03
2022-12-01T13:37:37.901Z,89.28
2022-12-01T13:42:41.075Z,89.49
2022-12-01T13:47:47.187Z,89.48
2022-12-01T13:52:50.647Z,89.71
2022-12-01T13:57:59.187Z,90.02
2022-12-01T14:03:20.222Z,89.90
2022-12-01T14:08:27.768Z,89.87
2022-12-01T14:13:32.836Z,90.26
2022-12-01T14:19:02.130Z,90.56
2022-12-01T14:24:07.223Z,90.65
2022-12-01T14:29:23.675Z,90.54
2022-12-01T14:34:34.424Z,90.76
2022-12-01T14:39:40.844Z,90.97
2022-12-01T14:44:55.282Z,90.86
2022-12-01T14:50:13.170Z,91.04
2022-12-01T14:55:26.496Z,91.11
2022-12-01T15:00:30.506Z,91.21
2022-12-01T15:05:40.195Z,91.19
2022-12-01T15:10:59.783Z,91.28
2022-12-01T15:16:05.922Z,91.25
2022-12-01T15:21:29.347Z,90.50
2022-12-01T15:26:46.467Z,90.78
2022-12-01T15:31:55.957Z,90.84
2022-12-01T15:37:00.721Z,90.85
2022-12-01T15:42:04.546Z,90.60
2022-12-01T15:47:47.283Z,90.75
2022-12-01T15:52:50.285Z,90.66
2022-12-01T15:57:53.492Z,90.57
2022-12-01T16:02:59.507Z,90.89
2022-12-01T16:08:16.935Z,90.84
2022-12-01T16:13:57.377Z,90.71
2022-12-01T16:19:22.300Z,90.87
2022-12-01T16:24:42.635Z,90.78
2022-12-01T16:29:53.162Z,90.43
2022-12-01T16:34:56.625Z,90.58
2022-12-01T16:39:59.442Z,90.77
2022-12-01T16:45:02.207Z,90.87
2022-12-01T16:50:05.712Z,90.96
2022-12-01T16:55:27.375Z,90.78
2022-12-01T17:00:30.872Z,90.65
2022-12-01T17:05:34.348Z,90.48
2022-12-01T17:10:41.207Z,90.72
2022-12-01T17:15:46.364Z,90.77
2022-12-01T17:21:08.349Z,90.84
2022-12-01T17:26:14.879Z,90.97
2022-12-01T17:31:17.853Z,90.71
2022-12-01T17:36:21.029Z,90.57
2022-12-01T17:41:25.669Z,90.24
2022-12-01T17:46:29.621Z,90.13
2022-12-01T17:51:32.502Z,89.94
2022-12-01T17:56:35.504Z,89.60
2022-12-01T18:01:38.671Z,89.16
2022-12-01T18:06:42.134Z,89.01
2022-12-01T18:11:44.876Z,89.19
2022-12-01T18:16:47.840Z,89.24
2022-12-01T18:21:50.893Z,89.46
2022-12-01T18:26:54.899Z,89.53
2022-12-01T18:31:59.687Z,89.19
2022-12-01T18:37:03.233Z,89.29
2022-12-01T18:42:05.944Z,89.34
2022-12-01T18:47:08.916Z,88.55
2022-12-01T18:52:11.862Z,87.98
2022-12-01T18:57:14.859Z,87.21
2022-12-01T19:02:18.324Z,86.32
2022-12-01T19:07:28.057Z,86.16
2022-12-01T19:12:36.384Z,84.98
2022-12-01T19:17:42.272Z,84.69
2022-12-01T19:22:45.150Z,85.23
2022-12-01T19:27:48.259Z,85.25
2022-12-01T19:32:51.062Z,83.90
2022-12-01T19:37:53.832Z,83.14
2022-12-01T19:42:56.869Z,83.60
2022-12-01T19:47:59.646Z,83.44
2022-12-01T19:53:03.168Z,83.40
2022-12-01T19:58:06.021Z,82.96
2022-12-01T20:03:08.898Z,82.80
2022-12-01T20:08:13.986Z,82.01
2022-12-01T20:13:16.701Z,81.72
2022-12-01T20:18:19.629Z,81.09
2022-12-01T20:23:22.352Z,80.98
2022-12-01T20:28:25.110Z,81.30
2022-12-01T20:33:28.809Z,81.81
2022-12-01T20:38:31.786Z,82.01
2022-12-01T20:43:35.373Z,81.57
2022-12-01T20:48:38.618Z,81.37
2022-12-01T20:53:54.667Z,81.42
2022-12-01T20:59:05.629Z,81.79
2022-12-01T21:04:08.731Z,81.65
2022-12-01T21:09:13.668Z,81.64
2022-12-01T21:14:27.975Z,81.30
2022-12-01T21:19:46.526Z,81.61
2022-12-01T21:24:51.989Z,81.17
2022-12-01T21:29:55.811Z,80.65
2022-12-01T21:35:13.669Z,81.08
2022-12-01T21:40:24.136Z,81.52
2022-12-01T21:45:32.020Z,81.28
2022-12-01T21:50:34.770Z,80.74
2022-12-01T21:55:39.068Z,80.57
2022-12-01T22:00:42.633Z,80.35
2022-12-01T22:06:01.436Z,80.11
2022-12-01T22:11:18.803Z,80.23
2022-12-01T22:16:28.716Z,80.30
2022-12-01T22:21:32.958Z,80.17
2022-12-01T22:26:44.580Z,80.17
2022-12-01T22:31:48.183Z,80.28
2022-12-01T22:36:51.605Z,79.99
2022-12-01T22:41:59.622Z,80.11
2022-12-01T22:47:03.233Z,80.08
2022-12-01T22:52:28.674Z,80.02
2022-12-01T22:57:33.391Z,80.39
2022-12-01T23:02:36.306Z,80.67
2022-12-01T23:07:42.765Z,80.25
2022-12-01T23:12:48.482Z,79.63
2022-12-01T23:17:52.040Z,80.03
2022-12-01T23:22:57.253Z,80.33
2022-12-01T23:28:04.735Z,80.07
2022-12-01T23:33:16.883Z,80.08
2022-12-01T23:38:24.021Z,80.20
2022-12-01T23:43:33.475Z,80.12
2022-12-01T23:48:41.385Z,80.54
2022-12-01T23:53:44.478Z,80.81
2022-12-01T23:58:47.836Z,81.04
